Archival Weather

Chicago O'Hare International

Chicago, Illinois (KORD)

Report from: Wednesday, November 23, 2022 10:51 AM CST
Current time: Monday, July 22, 2024 6:16 AM CDT

Current weather – Weather history – Daily summaries
Weather forecast

Temperature10.0°C (50.0°F)
Wind chill8.2°C (46.7°F)
Dew point1.7°C (35.1°F)
Winds 7 kts (3.6 m/s, 8.1 mph) South-Southwest (200°)
Visibility10 mi. (16.1 km)
Clouds Few clouds 25,000 ft. (7,620 m)
Altimeter30.16 in.Hg (1021 mB)
Relative humidity56 %
Density altitude-772 ft. (-235 m)
Sea-level pressure102.2 kPa (1022 mB, 30.16 in.Hg)
Remarks Automated weather observing station with precipitation discriminator
Flight conditions Visual Meteorological Conditions
Raw dataKORD 231651Z 20007KT 10SM FEW250 10/02 A3016 RMK AO2 SLP215 T01000017
An error has occurred. This application may no longer respond until reloaded. Reload 🗙